sensor_id;sensor_type;location;lat;lon;timestamp;pressure;altitude;pressure_sealevel;temperature;humidity
22025;BME280;11176;51.448;6.650;2023-03-23T00:01:23;45426.22;;;-141.29;91.69
22025;BME280;11176;51.448;6.650;2023-03-23T00:03:53;45432.19;;;-141.29;91.43
22025;BME280;11176;51.448;6.650;2023-03-23T00:06:23;45424.22;;;-141.29;91.34
22025;BME280;11176;51.448;6.650;2023-03-23T00:08:50;45422.22;;;-141.29;91.29
22025;BME280;11176;51.448;6.650;2023-03-23T00:11:27;45430.22;;;-141.29;91.02
22025;BME280;11176;51.448;6.650;2023-03-23T00:13:58;45430.22;;;-141.29;90.98
22025;BME280;11176;51.448;6.650;2023-03-23T00:16:31;45418.22;;;-141.29;90.82
22025;BME280;11176;51.448;6.650;2023-03-23T00:19:00;45438.19;;;-141.29;90.46
22025;BME280;11176;51.448;6.650;2023-03-23T00:21:31;45418.22;;;-141.29;90.71
22025;BME280;11176;51.448;6.650;2023-03-23T00:24:09;45434.19;;;-141.29;90.67
22025;BME280;11176;51.448;6.650;2023-03-23T00:26:37;45392.22;;;-141.29;90.81
22025;BME280;11176;51.448;6.650;2023-03-23T00:29:07;45426.22;;;-141.29;90.80
22025;BME280;11176;51.448;6.650;2023-03-23T00:31:33;45400.22;;;-141.29;90.86
22025;BME280;11176;51.448;6.650;2023-03-23T00:34:03;45420.22;;;-141.29;90.82
22025;BME280;11176;51.448;6.650;2023-03-23T00:36:31;45434.19;;;-141.29;90.88
22025;BME280;11176;51.448;6.650;2023-03-23T00:38:57;45408.22;;;-141.29;90.63
22025;BME280;11176;51.448;6.650;2023-03-23T00:41:26;45424.22;;;-141.29;90.53
22025;BME280;11176;51.448;6.650;2023-03-23T00:43:57;45398.22;;;-141.29;90.69
22025;BME280;11176;51.448;6.650;2023-03-23T00:46:23;45418.22;;;-141.29;90.82
22025;BME280;11176;51.448;6.650;2023-03-23T00:48:50;45410.22;;;-141.29;90.84
22025;BME280;11176;51.448;6.650;2023-03-23T00:51:19;45430.22;;;-141.29;90.95
22025;BME280;11176;51.448;6.650;2023-03-23T00:53:45;45398.22;;;-141.29;90.79
22025;BME280;11176;51.448;6.650;2023-03-23T00:56:11;45436.19;;;-141.29;91.05
22025;BME280;11176;51.448;6.650;2023-03-23T00:58:37;45432.19;;;-141.29;91.06
22025;BME280;11176;51.448;6.650;2023-03-23T01:01:03;45416.22;;;-141.29;91.25
22025;BME280;11176;51.448;6.650;2023-03-23T01:03:29;45438.19;;;-141.29;91.39
22025;BME280;11176;51.448;6.650;2023-03-23T01:05:58;45424.22;;;-141.29;91.20
22025;BME280;11176;51.448;6.650;2023-03-23T01:08:24;45434.19;;;-141.29;91.56
22025;BME280;11176;51.448;6.650;2023-03-23T01:10:50;45430.22;;;-141.29;91.50
22025;BME280;11176;51.448;6.650;2023-03-23T01:13:16;45410.22;;;-141.29;91.57
22025;BME280;11176;51.448;6.650;2023-03-23T01:15:42;45410.22;;;-141.29;91.83
22025;BME280;11176;51.448;6.650;2023-03-23T01:18:09;45434.19;;;-141.29;91.93
22025;BME280;11176;51.448;6.650;2023-03-23T01:20:35;45418.22;;;-141.29;92.00
22025;BME280;11176;51.448;6.650;2023-03-23T01:23:02;45436.19;;;-141.29;91.92
22025;BME280;11176;51.448;6.650;2023-03-23T01:25:29;45418.22;;;-141.29;92.01
22025;BME280;11176;51.448;6.650;2023-03-23T01:27:56;45418.22;;;-141.29;92.12
22025;BME280;11176;51.448;6.650;2023-03-23T01:30:22;45426.22;;;-141.29;92.16
22025;BME280;11176;51.448;6.650;2023-03-23T01:32:48;45438.19;;;-141.29;92.23
22025;BME280;11176;51.448;6.650;2023-03-23T01:35:13;45418.22;;;-141.29;92.04
22025;BME280;11176;51.448;6.650;2023-03-23T01:37:39;45432.19;;;-141.29;92.16
22025;BME280;11176;51.448;6.650;2023-03-23T01:40:05;45442.19;;;-141.29;91.94
22025;BME280;11176;51.448;6.650;2023-03-23T01:42:34;45414.22;;;-141.29;92.18
22025;BME280;11176;51.448;6.650;2023-03-23T01:47:52;45418.22;;;-141.29;92.38
22025;BME280;11176;51.448;6.650;2023-03-23T01:50:23;45430.22;;;-141.29;92.56
22025;BME280;11176;51.448;6.650;2023-03-23T01:52:51;45436.19;;;-141.29;92.72
22025;BME280;11176;51.448;6.650;2023-03-23T01:55:19;45426.22;;;-141.29;92.74
22025;BME280;11176;51.448;6.650;2023-03-23T01:57:47;45436.19;;;-141.29;92.74
22025;BME280;11176;51.448;6.650;2023-03-23T02:00:15;45442.19;;;-141.29;92.71
22025;BME280;11176;51.448;6.650;2023-03-23T02:02:47;45430.22;;;-141.29;93.01
22025;BME280;11176;51.448;6.650;2023-03-23T02:05:21;45412.22;;;-141.29;93.17
22025;BME280;11176;51.448;6.650;2023-03-23T02:07:48;45430.22;;;-141.29;93.24
22025;BME280;11176;51.448;6.650;2023-03-23T02:10:15;45414.22;;;-141.29;93.27
22025;BME280;11176;51.448;6.650;2023-03-23T02:12:42;45430.22;;;-141.29;93.19
22025;BME280;11176;51.448;6.650;2023-03-23T02:15:08;45430.22;;;-141.29;93.01
22025;BME280;11176;51.448;6.650;2023-03-23T02:17:53;45430.22;;;-141.29;93.17
22025;BME280;11176;51.448;6.650;2023-03-23T02:20:50;45418.22;;;-141.29;93.27
22025;BME280;11176;51.448;6.650;2023-03-23T02:23:40;45414.22;;;-141.29;93.58
22025;BME280;11176;51.448;6.650;2023-03-23T02:29:11;45426.22;;;-141.29;93.92
22025;BME280;11176;51.448;6.650;2023-03-23T02:32:01;45438.19;;;-141.29;94.23
22025;BME280;11176;51.448;6.650;2023-03-23T02:34:37;45440.19;;;-141.29;94.70
22025;BME280;11176;51.448;6.650;2023-03-23T02:37:14;45424.22;;;-141.29;94.64
22025;BME280;11176;51.448;6.650;2023-03-23T02:39:47;45422.22;;;-141.29;95.33
22025;BME280;11176;51.448;6.650;2023-03-23T02:42:21;45438.19;;;-141.29;95.15
22025;BME280;11176;51.448;6.650;2023-03-23T02:44:49;45422.22;;;-141.29;95.41
22025;BME280;11176;51.448;6.650;2023-03-23T02:47:26;45438.19;;;-141.29;95.31
22025;BME280;11176;51.448;6.650;2023-03-23T02:49:54;45438.19;;;-141.29;95.74
22025;BME280;11176;51.448;6.650;2023-03-23T02:52:24;45430.22;;;-141.29;95.98
22025;BME280;11176;51.448;6.650;2023-03-23T02:54:52;45422.22;;;-141.29;96.26
22025;BME280;11176;51.448;6.650;2023-03-23T02:57:21;45438.19;;;-141.29;96.56
22025;BME280;11176;51.448;6.650;2023-03-23T02:59:48;45434.19;;;-141.29;96.52
22025;BME280;11176;51.448;6.650;2023-03-23T03:02:32;45426.22;;;-141.29;96.82
22025;BME280;11176;51.448;6.650;2023-03-23T03:16:02;45428.22;;;-141.29;97.14
22025;BME280;11176;51.448;6.650;2023-03-23T03:18:45;45426.22;;;-141.29;96.96
22025;BME280;11176;51.448;6.650;2023-03-23T03:21:14;45416.22;;;-141.29;96.91
22025;BME280;11176;51.448;6.650;2023-03-23T03:23:44;45438.19;;;-141.29;96.68
22025;BME280;11176;51.448;6.650;2023-03-23T03:26:15;45446.19;;;-141.29;96.63
22025;BME280;11176;51.448;6.650;2023-03-23T03:28:48;45432.19;;;-141.29;96.29
22025;BME280;11176;51.448;6.650;2023-03-23T03:31:22;45422.22;;;-141.29;96.32
22025;BME280;11176;51.448;6.650;2023-03-23T03:33:50;45430.22;;;-141.29;96.09
22025;BME280;11176;51.448;6.650;2023-03-23T03:36:19;45414.22;;;-141.29;95.97
22025;BME280;11176;51.448;6.650;2023-03-23T03:38:49;45422.22;;;-141.29;96.06
22025;BME280;11176;51.448;6.650;2023-03-23T03:41:16;45436.19;;;-141.29;95.88
22025;BME280;11176;51.448;6.650;2023-03-23T03:43:42;45422.22;;;-141.29;95.55
22025;BME280;11176;51.448;6.650;2023-03-23T03:46:07;45424.22;;;-141.29;95.43
22025;BME280;11176;51.448;6.650;2023-03-23T03:48:33;45458.19;;;-141.29;95.12
22025;BME280;11176;51.448;6.650;2023-03-23T03:50:58;45440.19;;;-141.29;95.08
22025;BME280;11176;51.448;6.650;2023-03-23T03:53:29;45434.19;;;-141.29;95.31
22025;BME280;11176;51.448;6.650;2023-03-23T03:55:56;45422.22;;;-141.29;95.19
22025;BME280;11176;51.448;6.650;2023-03-23T03:58:22;45426.22;;;-141.29;95.17
22025;BME280;11176;51.448;6.650;2023-03-23T04:01:07;45436.19;;;-141.29;95.30
22025;BME280;11176;51.448;6.650;2023-03-23T04:03:37;45430.22;;;-141.29;95.33
22025;BME280;11176;51.448;6.650;2023-03-23T04:06:08;45434.19;;;-141.29;95.04
22025;BME280;11176;51.448;6.650;2023-03-23T04:08:34;45428.22;;;-141.29;95.00
22025;BME280;11176;51.448;6.650;2023-03-23T04:11:00;45422.22;;;-141.29;94.85
22025;BME280;11176;51.448;6.650;2023-03-23T04:13:28;45426.22;;;-141.29;94.85
22025;BME280;11176;51.448;6.650;2023-03-23T04:16:17;45434.19;;;-141.29;95.33
22025;BME280;11176;51.448;6.650;2023-03-23T04:18:44;45422.22;;;-141.29;95.05
22025;BME280;11176;51.448;6.650;2023-03-23T04:21:13;45430.22;;;-141.29;94.95
22025;BME280;11176;51.448;6.650;2023-03-23T04:23:39;45420.22;;;-141.29;94.75
22025;BME280;11176;51.448;6.650;2023-03-23T04:26:06;45428.22;;;-141.29;94.68
22025;BME280;11176;51.448;6.650;2023-03-23T04:28:39;45426.22;;;-141.29;94.53
22025;BME280;11176;51.448;6.650;2023-03-23T04:31:41;45434.19;;;-141.29;94.12
22025;BME280;11176;51.448;6.650;2023-03-23T04:34:32;45424.22;;;-141.29;93.92
22025;BME280;11176;51.448;6.650;2023-03-23T04:36:58;45434.19;;;-141.29;94.17
22025;BME280;11176;51.448;6.650;2023-03-23T04:39:27;45444.19;;;-141.29;94.07
22025;BME280;11176;51.448;6.650;2023-03-23T04:41:55;45426.22;;;-141.29;93.72
22025;BME280;11176;51.448;6.650;2023-03-23T04:44:49;45430.22;;;-141.29;93.85
22025;BME280;11176;51.448;6.650;2023-03-23T04:47:23;45440.19;;;-141.29;93.65
22025;BME280;11176;51.448;6.650;2023-03-23T04:49:55;45426.22;;;-141.29;93.16
22025;BME280;11176;51.448;6.650;2023-03-23T04:52:28;45414.22;;;-141.29;93.01
22025;BME280;11176;51.448;6.650;2023-03-23T04:54:56;45430.22;;;-141.29;92.77
22025;BME280;11176;51.448;6.650;2023-03-23T04:57:23;45410.22;;;-141.29;92.56
22025;BME280;11176;51.448;6.650;2023-03-23T05:00:09;45430.22;;;-141.29;92.47
22025;BME280;11176;51.448;6.650;2023-03-23T05:02:45;45416.22;;;-141.29;92.44
22025;BME280;11176;51.448;6.650;2023-03-23T05:05:19;45430.22;;;-141.29;92.13
22025;BME280;11176;51.448;6.650;2023-03-23T05:07:46;45410.22;;;-141.29;92.11
22025;BME280;11176;51.448;6.650;2023-03-23T05:10:14;45422.22;;;-141.29;92.09
22025;BME280;11176;51.448;6.650;2023-03-23T05:12:41;45426.22;;;-141.29;91.95
22025;BME280;11176;51.448;6.650;2023-03-23T05:15:13;45424.22;;;-141.29;92.07
22025;BME280;11176;51.448;6.650;2023-03-23T05:17:39;45424.22;;;-141.29;91.83
22025;BME280;11176;51.448;6.650;2023-03-23T05:20:17;45426.22;;;-141.29;91.94
22025;BME280;11176;51.448;6.650;2023-03-23T05:22:47;45426.22;;;-141.29;91.98
22025;BME280;11176;51.448;6.650;2023-03-23T05:25:17;45410.22;;;-141.29;91.92
22025;BME280;11176;51.448;6.650;2023-03-23T05:27:51;45430.22;;;-141.29;91.80
22025;BME280;11176;51.448;6.650;2023-03-23T05:30:37;45416.22;;;-141.29;91.60
22025;BME280;11176;51.448;6.650;2023-03-23T05:33:04;45434.19;;;-141.29;91.54
22025;BME280;11176;51.448;6.650;2023-03-23T05:35:45;45430.22;;;-141.29;91.51
22025;BME280;11176;51.448;6.650;2023-03-23T05:38:12;45428.22;;;-141.29;91.68
22025;BME280;11176;51.448;6.650;2023-03-23T05:40:38;45424.22;;;-141.29;91.58
22025;BME280;11176;51.448;6.650;2023-03-23T05:43:14;45430.22;;;-141.29;91.72
22025;BME280;11176;51.448;6.650;2023-03-23T05:46:07;45434.19;;;-141.29;91.21
22025;BME280;11176;51.448;6.650;2023-03-23T05:48:34;45422.22;;;-141.29;91.22
22025;BME280;11176;51.448;6.650;2023-03-23T05:51:00;45418.22;;;-141.29;91.20
22025;BME280;11176;51.448;6.650;2023-03-23T05:53:28;45430.22;;;-141.29;91.29
22025;BME280;11176;51.448;6.650;2023-03-23T05:55:58;45402.22;;;-141.29;91.16
22025;BME280;11176;51.448;6.650;2023-03-23T05:58:41;45428.22;;;-141.29;91.31
22025;BME280;11176;51.448;6.650;2023-03-23T06:01:07;45434.19;;;-141.29;91.40
22025;BME280;11176;51.448;6.650;2023-03-23T06:03:33;45426.22;;;-141.29;90.88
22025;BME280;11176;51.448;6.650;2023-03-23T06:06:10;45422.22;;;-141.29;91.25
22025;BME280;11176;51.448;6.650;2023-03-23T06:09:05;45430.22;;;-141.29;91.10
22025;BME280;11176;51.448;6.650;2023-03-23T06:12:04;45414.22;;;-141.29;91.06
22025;BME280;11176;51.448;6.650;2023-03-23T06:14:59;45420.22;;;-141.29;91.38
22025;BME280;11176;51.448;6.650;2023-03-23T06:17:42;45430.22;;;-141.29;91.09
22025;BME280;11176;51.448;6.650;2023-03-23T06:20:08;45420.22;;;-141.29;91.05
22025;BME280;11176;51.448;6.650;2023-03-23T06:22:39;45420.22;;;-141.29;91.00
22025;BME280;11176;51.448;6.650;2023-03-23T06:25:09;45422.22;;;-141.29;90.77
22025;BME280;11176;51.448;6.650;2023-03-23T06:27:42;45424.22;;;-141.29;90.81
22025;BME280;11176;51.448;6.650;2023-03-23T06:30:08;45430.22;;;-141.29;91.01
22025;BME280;11176;51.448;6.650;2023-03-23T06:32:34;45426.22;;;-141.29;90.57
22025;BME280;11176;51.448;6.650;2023-03-23T06:35:02;45424.22;;;-141.29;90.83
22025;BME280;11176;51.448;6.650;2023-03-23T06:37:46;45426.22;;;-141.29;90.74
22025;BME280;11176;51.448;6.650;2023-03-23T06:40:26;45420.22;;;-141.29;90.42
22025;BME280;11176;51.448;6.650;2023-03-23T06:42:56;45426.22;;;-141.29;90.45
22025;BME280;11176;51.448;6.650;2023-03-23T06:45:40;45422.22;;;-141.29;90.39
22025;BME280;11176;51.448;6.650;2023-03-23T06:48:25;45434.19;;;-141.29;90.14
22025;BME280;11176;51.448;6.650;2023-03-23T06:50:50;45426.22;;;-141.29;90.02
22025;BME280;11176;51.448;6.650;2023-03-23T06:53:19;45412.22;;;-141.29;89.90
22025;BME280;11176;51.448;6.650;2023-03-23T06:55:48;45410.22;;;-141.29;89.65
22025;BME280;11176;51.448;6.650;2023-03-23T06:58:13;45428.22;;;-141.29;89.51
22025;BME280;11176;51.448;6.650;2023-03-23T07:00:39;45418.22;;;-141.29;89.21
22025;BME280;11176;51.448;6.650;2023-03-23T07:03:06;45428.22;;;-141.29;88.48
22025;BME280;11176;51.448;6.650;2023-03-23T07:05:36;45436.19;;;-141.29;88.39
22025;BME280;11176;51.448;6.650;2023-03-23T07:08:03;45412.22;;;-141.29;88.34
22025;BME280;11176;51.448;6.650;2023-03-23T07:10:33;45422.22;;;-141.29;87.64
22025;BME280;11176;51.448;6.650;2023-03-23T07:12:59;45418.22;;;-141.29;87.90
22025;BME280;11176;51.448;6.650;2023-03-23T07:15:28;45402.22;;;-141.29;87.86
22025;BME280;11176;51.448;6.650;2023-03-23T07:17:56;45410.22;;;-141.29;87.49
22025;BME280;11176;51.448;6.650;2023-03-23T07:20:29;45412.22;;;-141.29;87.22
22025;BME280;11176;51.448;6.650;2023-03-23T07:22:54;45424.22;;;-141.29;87.10
22025;BME280;11176;51.448;6.650;2023-03-23T07:25:59;45406.22;;;-141.29;87.06
22025;BME280;11176;51.448;6.650;2023-03-23T07:28:31;45426.22;;;-141.29;87.07
22025;BME280;11176;51.448;6.650;2023-03-23T07:31:06;45428.22;;;-141.29;87.09
22025;BME280;11176;51.448;6.650;2023-03-23T07:33:35;45402.22;;;-141.29;87.14
22025;BME280;11176;51.448;6.650;2023-03-23T07:36:02;45410.22;;;-141.29;86.76
22025;BME280;11176;51.448;6.650;2023-03-23T07:38:29;45422.22;;;-141.29;86.52
22025;BME280;11176;51.448;6.650;2023-03-23T07:40:56;45402.22;;;-141.29;86.60
22025;BME280;11176;51.448;6.650;2023-03-23T07:43:23;45412.22;;;-141.29;86.43
22025;BME280;11176;51.448;6.650;2023-03-23T07:46:07;45410.22;;;-141.29;86.06
22025;BME280;11176;51.448;6.650;2023-03-23T07:48:49;45410.22;;;-141.29;86.36
22025;BME280;11176;51.448;6.650;2023-03-23T07:51:16;45426.22;;;-141.29;85.88
22025;BME280;11176;51.448;6.650;2023-03-23T07:53:43;45414.22;;;-141.29;85.63
22025;BME280;11176;51.448;6.650;2023-03-23T07:56:34;45422.22;;;-141.29;85.40
22025;BME280;11176;51.448;6.650;2023-03-23T07:59:12;45426.22;;;-141.29;85.37
22025;BME280;11176;51.448;6.650;2023-03-23T08:01:39;45426.22;;;-141.29;85.24
22025;BME280;11176;51.448;6.650;2023-03-23T08:04:27;45410.22;;;-141.29;84.82
22025;BME280;11176;51.448;6.650;2023-03-23T08:07:05;45410.22;;;-141.29;85.31
22025;BME280;11176;51.448;6.650;2023-03-23T08:09:47;45416.22;;;-141.29;84.84
22025;BME280;11176;51.448;6.650;2023-03-23T08:12:31;45430.22;;;-141.29;84.42
22025;BME280;11176;51.448;6.650;2023-03-23T08:15:21;45414.22;;;-141.29;84.47
22025;BME280;11176;51.448;6.650;2023-03-23T08:18:04;45414.22;;;-141.29;84.05
22025;BME280;11176;51.448;6.650;2023-03-23T08:20:48;45414.22;;;-141.29;83.98
22025;BME280;11176;51.448;6.650;2023-03-23T08:23:36;45422.22;;;-141.29;83.76
22025;BME280;11176;51.448;6.650;2023-03-23T08:26:20;45414.22;;;-141.29;83.46
22025;BME280;11176;51.448;6.650;2023-03-23T08:29:06;45400.22;;;-141.29;83.45
22025;BME280;11176;51.448;6.650;2023-03-23T08:31:52;45414.22;;;-141.29;83.54
22025;BME280;11176;51.448;6.650;2023-03-23T08:34:38;45402.22;;;-141.29;83.62
22025;BME280;11176;51.448;6.650;2023-03-23T08:37:09;45406.22;;;-141.29;83.45
22025;BME280;11176;51.448;6.650;2023-03-23T08:39:54;45410.22;;;-141.29;83.29
22025;BME280;11176;51.448;6.650;2023-03-23T08:42:40;45422.22;;;-141.29;83.56
22025;BME280;11176;51.448;6.650;2023-03-23T08:45:29;45410.22;;;-141.29;82.28
22025;BME280;11176;51.448;6.650;2023-03-23T08:48:02;45420.22;;;-141.29;82.13
22025;BME280;11176;51.448;6.650;2023-03-23T08:50:51;45414.22;;;-141.29;82.25
22025;BME280;11176;51.448;6.650;2023-03-23T08:53:36;45410.22;;;-141.29;80.98
22025;BME280;11176;51.448;6.650;2023-03-23T08:56:29;45428.22;;;-141.29;81.10
22025;BME280;11176;51.448;6.650;2023-03-23T08:59:13;45406.22;;;-141.29;81.10
22025;BME280;11176;51.448;6.650;2023-03-23T09:01:55;45418.22;;;-141.29;80.03
22025;BME280;11176;51.448;6.650;2023-03-23T09:04:36;45418.22;;;-141.29;80.14
22025;BME280;11176;51.448;6.650;2023-03-23T09:07:20;45410.22;;;-141.29;80.44
22025;BME280;11176;51.448;6.650;2023-03-23T09:09:45;45408.22;;;-141.29;80.18
22025;BME280;11176;51.448;6.650;2023-03-23T09:12:11;45434.19;;;-141.29;81.13
22025;BME280;11176;51.448;6.650;2023-03-23T09:14:37;45426.22;;;-141.29;82.99
22025;BME280;11176;51.448;6.650;2023-03-23T09:17:04;45406.22;;;-141.29;83.85
22025;BME280;11176;51.448;6.650;2023-03-23T09:19:31;45400.22;;;-141.29;84.62
22025;BME280;11176;51.448;6.650;2023-03-23T09:21:58;45394.22;;;-141.29;84.16
22025;BME280;11176;51.448;6.650;2023-03-23T09:24:24;45422.22;;;-141.29;85.11
22025;BME280;11176;51.448;6.650;2023-03-23T09:26:50;45410.22;;;-141.29;88.31
22025;BME280;11176;51.448;6.650;2023-03-23T09:29:16;45418.22;;;-141.29;94.24
22025;BME280;11176;51.448;6.650;2023-03-23T09:31:41;45438.19;;;-141.29;99.01
22025;BME280;11176;51.448;6.650;2023-03-23T09:34:07;45454.19;;;-141.29;100.00
22025;BME280;11176;51.448;6.650;2023-03-23T09:36:36;45450.19;;;-141.29;100.00
22025;BME280;11176;51.448;6.650;2023-03-23T09:39:01;45464.19;;;-141.29;100.00
22025;BME280;11176;51.448;6.650;2023-03-23T09:47:18;45452.19;;;-141.29;100.00
22025;BME280;11176;51.448;6.650;2023-03-23T09:52:18;45476.16;;;-141.29;100.00
22025;BME280;11176;51.448;6.650;2023-03-23T09:54:47;45474.16;;;-141.29;100.00
22025;BME280;11176;51.448;6.650;2023-03-23T10:00:16;45482.16;;;-141.29;100.00
22025;BME280;11176;51.448;6.650;2023-03-23T10:03:06;45460.19;;;-141.29;100.00
22025;BME280;11176;51.448;6.650;2023-03-23T10:05:39;45474.16;;;-141.29;100.00
22025;BME280;11176;51.448;6.650;2023-03-23T10:08:14;45474.16;;;-141.29;100.00
22025;BME280;11176;51.448;6.650;2023-03-23T10:16:05;45490.16;;;-141.29;100.00
22025;BME280;11176;51.448;6.650;2023-03-23T10:18:39;45476.16;;;-141.29;100.00
22025;BME280;11176;51.448;6.650;2023-03-23T10:21:11;45478.16;;;-141.29;100.00
22025;BME280;11176;51.448;6.650;2023-03-23T10:24:03;45466.19;;;-141.29;100.00
22025;BME280;11176;51.448;6.650;2023-03-23T10:27:00;45468.19;;;-141.29;100.00
22025;BME280;11176;51.448;6.650;2023-03-23T10:29:35;45490.16;;;-141.29;100.00
22025;BME280;11176;51.448;6.650;2023-03-23T10:32:11;45468.19;;;-141.29;100.00
22025;BME280;11176;51.448;6.650;2023-03-23T10:34:51;45462.19;;;-141.29;100.00
22025;BME280;11176;51.448;6.650;2023-03-23T10:37:38;45462.19;;;-141.29;100.00
22025;BME280;11176;51.448;6.650;2023-03-23T10:40:11;45462.19;;;-141.29;100.00
22025;BME280;11176;51.448;6.650;2023-03-23T10:42:40;45482.16;;;-141.29;100.00
22025;BME280;11176;51.448;6.650;2023-03-23T10:45:17;45496.16;;;-141.29;100.00
22025;BME280;11176;51.448;6.650;2023-03-23T10:47:58;45482.16;;;-141.29;100.00
22025;BME280;11176;51.448;6.650;2023-03-23T10:50:30;45482.16;;;-141.29;100.00
22025;BME280;11176;51.448;6.650;2023-03-23T10:52:58;45470.19;;;-141.29;100.00
22025;BME280;11176;51.448;6.650;2023-03-23T10:55:36;45466.19;;;-141.29;100.00
22025;BME280;11176;51.448;6.650;2023-03-23T10:58:08;45470.19;;;-141.29;100.00
22025;BME280;11176;51.448;6.650;2023-03-23T11:00:41;45474.16;;;-141.29;100.00
22025;BME280;11176;51.448;6.650;2023-03-23T11:05:54;45478.16;;;-141.29;100.00
22025;BME280;11176;51.448;6.650;2023-03-23T11:08:28;45470.19;;;-141.29;100.00
22025;BME280;11176;51.448;6.650;2023-03-23T11:11:18;45482.16;;;-141.29;100.00
22025;BME280;11176;51.448;6.650;2023-03-23T11:13:49;45466.19;;;-141.29;100.00
22025;BME280;11176;51.448;6.650;2023-03-23T11:16:33;45488.16;;;-141.29;100.00
22025;BME280;11176;51.448;6.650;2023-03-23T11:19:11;45474.16;;;-141.29;100.00
22025;BME280;11176;51.448;6.650;2023-03-23T11:21:37;45468.19;;;-141.29;100.00
22025;BME280;11176;51.448;6.650;2023-03-23T11:24:05;45482.16;;;-141.29;100.00
22025;BME280;11176;51.448;6.650;2023-03-23T11:26:32;45476.16;;;-141.29;100.00
22025;BME280;11176;51.448;6.650;2023-03-23T11:29:13;45474.16;;;-141.29;100.00
22025;BME280;11176;51.448;6.650;2023-03-23T11:31:45;45462.19;;;-141.29;100.00
22025;BME280;11176;51.448;6.650;2023-03-23T11:34:20;45462.19;;;-141.29;100.00
22025;BME280;11176;51.448;6.650;2023-03-23T11:36:52;45446.19;;;-141.29;100.00
22025;BME280;11176;51.448;6.650;2023-03-23T11:39:33;45458.19;;;-141.29;100.00
22025;BME280;11176;51.448;6.650;2023-03-23T11:42:01;45470.19;;;-141.29;100.00
22025;BME280;11176;51.448;6.650;2023-03-23T11:44:33;45474.16;;;-141.29;100.00
22025;BME280;11176;51.448;6.650;2023-03-23T11:47:04;45468.19;;;-141.29;100.00
22025;BME280;11176;51.448;6.650;2023-03-23T11:49:39;45436.19;;;-141.29;100.00
22025;BME280;11176;51.448;6.650;2023-03-23T11:52:21;45454.19;;;-141.29;100.00
22025;BME280;11176;51.448;6.650;2023-03-23T11:55:04;45470.19;;;-141.29;100.00
22025;BME280;11176;51.448;6.650;2023-03-23T11:57:35;45430.22;;;-141.29;100.00
22025;BME280;11176;51.448;6.650;2023-03-23T12:00:01;45440.19;;;-141.29;100.00
22025;BME280;11176;51.448;6.650;2023-03-23T12:02:53;45446.19;;;-141.29;100.00
22025;BME280;11176;51.448;6.650;2023-03-23T12:08:56;45454.19;;;-141.29;100.00
22025;BME280;11176;51.448;6.650;2023-03-23T12:11:56;45444.19;;;-141.29;100.00
22025;BME280;11176;51.448;6.650;2023-03-23T12:15:01;45442.19;;;-141.29;100.00
22025;BME280;11176;51.448;6.650;2023-03-23T12:20:32;45446.19;;;-141.29;100.00
22025;BME280;11176;51.448;6.650;2023-03-23T12:31:28;45450.19;;;-141.29;100.00
22025;BME280;11176;51.448;6.650;2023-03-23T12:34:20;45438.19;;;-141.29;100.00
22025;BME280;11176;51.448;6.650;2023-03-23T12:47:49;45446.19;;;-141.29;100.00
22025;BME280;11176;51.448;6.650;2023-03-23T12:55:47;45444.19;;;-141.29;100.00
22025;BME280;11176;51.448;6.650;2023-03-23T12:58:28;45416.22;;;-141.29;100.00
22025;BME280;11176;51.448;6.650;2023-03-23T13:01:01;45422.22;;;-141.29;100.00
22025;BME280;11176;51.448;6.650;2023-03-23T13:06:40;45408.22;;;-141.29;100.00
22025;BME280;11176;51.448;6.650;2023-03-23T13:11:42;45386.25;;;-141.29;100.00
22025;BME280;11176;51.448;6.650;2023-03-23T13:20:23;45350.28;;;-141.29;87.84
22025;BME280;11176;51.448;6.650;2023-03-23T13:23:15;45344.28;;;-141.29;86.37
22025;BME280;11176;51.448;6.650;2023-03-23T13:26:03;45334.28;;;-141.29;85.64
22025;BME280;11176;51.448;6.650;2023-03-23T13:28:44;45324.28;;;-141.29;85.72
22025;BME280;11176;51.448;6.650;2023-03-23T13:31:16;45336.28;;;-141.29;79.18
22025;BME280;11176;51.448;6.650;2023-03-23T13:34:06;45330.28;;;-141.29;78.72
22025;BME280;11176;51.448;6.650;2023-03-23T13:36:37;45318.28;;;-141.29;79.49
22025;BME280;11176;51.448;6.650;2023-03-23T13:39:06;45314.28;;;-141.29;80.65
22025;BME280;11176;51.448;6.650;2023-03-23T13:41:46;45324.28;;;-141.29;77.95
22025;BME280;11176;51.448;6.650;2023-03-23T13:44:20;45312.31;;;-141.29;78.31
22025;BME280;11176;51.448;6.650;2023-03-23T13:47:03;45306.31;;;-141.29;78.19
22025;BME280;11176;51.448;6.650;2023-03-23T13:49:31;45322.28;;;-141.29;76.68
22025;BME280;11176;51.448;6.650;2023-03-23T13:52:14;45320.28;;;-141.29;77.60
22025;BME280;11176;51.448;6.650;2023-03-23T13:54:43;45312.31;;;-141.29;79.13
22025;BME280;11176;51.448;6.650;2023-03-23T13:57:37;45332.28;;;-141.29;79.19
22025;BME280;11176;51.448;6.650;2023-03-23T14:05:49;45338.28;;;-141.29;81.53
22025;BME280;11176;51.448;6.650;2023-03-23T14:08:36;45350.28;;;-141.29;81.03
22025;BME280;11176;51.448;6.650;2023-03-23T14:11:11;45356.25;;;-141.29;82.66
22025;BME280;11176;51.448;6.650;2023-03-23T14:13:50;45334.28;;;-141.29;83.45
22025;BME280;11176;51.448;6.650;2023-03-23T14:16:20;45358.25;;;-141.29;84.16
22025;BME280;11176;51.448;6.650;2023-03-23T14:18:58;45358.25;;;-141.29;84.91
22025;BME280;11176;51.448;6.650;2023-03-23T14:23:53;45342.28;;;-141.29;84.46
22025;BME280;11176;51.448;6.650;2023-03-23T14:26:21;45338.28;;;-141.29;82.76
22025;BME280;11176;51.448;6.650;2023-03-23T14:28:51;45324.28;;;-141.29;84.34
22025;BME280;11176;51.448;6.650;2023-03-23T14:31:23;45324.28;;;-141.29;81.36
22025;BME280;11176;51.448;6.650;2023-03-23T14:33:50;45318.28;;;-141.29;80.58
22025;BME280;11176;51.448;6.650;2023-03-23T14:36:26;45308.31;;;-141.29;79.51
22025;BME280;11176;51.448;6.650;2023-03-23T14:39:05;45314.28;;;-141.29;78.87